x

Monterey - 27nm Wnw Of Monterey, Ca (46042) Wave Buoy

5:50pm - Sat 10th Dec 2016 All times are PST. -8 hours from GMT.

  • Sig Wave height 7.9ft
  • Swell Direction
  • Peak Period 10s
  • Average Period 7s
  • Wind
    9mph, 11mph gusts
  • Sea Temp 55°f
  • Air Temp 56°f
  • Sea Pressure 1018.5mb
  • Monterey - 27nm Wnw Of Monterey, Ca
  • Monterey - 27nm Wnw Of Monterey, Ca

More Historic Weather Station data

Upgrade to MSW Pro to gain access to the past 30 days of data for over 8000 Wavebouys and Weather Stations around the globe.

Join Pro

Comparision Forecast

View Surf forecast
   
Sat 12/10 5:50pm 8ft 10s 7s 9 11 mph 1018.5mb 55f 56f
4:50pm 9ft 11s 8s 11 13 mph 1018mb 55f 57f
3:50pm 9ft 11s 8s 13
mph
1017.9mb 55f 56f
2:50pm 8.5ft 11s 8s 13 16 mph 1018mb 55f 56f
1:50pm 9ft 11s 9s 16 18 mph 1018.2mb 55f 56f
12:50pm 8.5ft 12s 8s 16 18 mph 1018.9mb 55f 56f
11:50am 8ft 11s 8s 13 18 mph 1019.9mb 55f 56f
10:50am 7ft 9s 8s 13 16 mph 1020.8mb 55f 56f
9:50am 7ft 14s 8s 11 13 mph 1021.1mb 55f 56f
8:50am 6.5ft 14s 8s 11 13 mph 1020.7mb 54f 56f
7:50am 5.5ft 10s 7s 7 9 mph 1020.6mb 54f 56f
6:50am 6ft 13s 8s 9 11 mph 1020.4mb 54f 56f
5:50am 6ft 15s 8s 7
mph
1020.5mb 54f 56f
4:50am 6ft 15s 8s 7
mph
1020.3mb 54f 56f
3:50am 5.5ft 9s 8s 7 9 mph 1020.5mb 54f 56f
2:50am 6ft 10s 7s 9 11 mph 1020.9mb 55f 57f
1:50am 6ft 15s 8s 11 13 mph 1021mb 55f 56f
12:50am 5.5ft 15s 7s 13 16 mph 1021.1mb 55f 56f
Fri 12/09 11:50pm 6ft 9s 7s 16 18 mph 1021.1mb 55f 56f
10:50pm 6ft 9s 7s 16 20 mph 1021.2mb 55f 56f
9:50pm 6ft 9s 7s 16 18 mph 1021.3mb 55f 56f
8:50pm 5.5ft 15s 7s 13 16 mph 1021.3mb 55f 56f
7:50pm 6ft 15s 8s 11 13 mph 1021.1mb 55f 56f
6:50pm 5.5ft 9s 8s 9 11 mph 1021.3mb 55f 56f
5:50pm 5.5ft 15s 8s 7 9 mph 1021.6mb 55f 56f
4:50pm 6ft 15s 8s 4 7 mph 1021.5mb 55f 55f
3:50pm 6ft 14s 8s 2 4 mph 1021.9mb 55f 55f
2:50pm 5ft 15s 8s 2 4 mph 1022.4mb 55f 55f
1:50pm 6ft 15s 9s 7 9 mph 1022.4mb 55f 55f
12:50pm 6ft 15s 9s 7 9 mph 1023.1mb 55f 55f
11:50am 6ft 15s 8s 9 13 mph 1023.7mb 55f 56f
10:50am 5ft 16s 8s 7 9 mph 1025.2mb 55f 56f
9:50am 5ft 16s 8s 11 13 mph 1024.7mb 55f 55f
8:50am 5ft 16s 8s 7 9 mph 1024.3mb 55f 55f
7:50am 5ft 16s 8s 7 9 mph 1023.7mb 55f 55f
6:50am 5ft 16s 7s 11 13 mph 1022.9mb 55f 55f
5:50am 5ft 8s 7s 9 11 mph 1022.7mb 55f 55f
4:50am 5ft 15s 7s 4 9 mph 1022.6mb 55f 55f
3:50am 5.5ft 16s 7s 7 9 mph 1022.6mb 55f 55f
2:50am 5ft 16s 7s 9 11 mph 1022.8mb 55f 56f
1:50am 5ft 16s 6s 7 9 mph 1022.9mb 55f 56f
12:50am 5.5ft 16s 6s  -  4 mph 1023mb 55f 56f
Thu 12/08 11:50pm 5.5ft 16s 6s 9 11 mph 1022.9mb 55f 55f
10:50pm 5.5ft 8s 6s 11 13 mph 1022.8mb 55f 56f
9:50pm 5.5ft 8s 6s 11 13 mph 1022.2mb 55f 56f
8:50pm 5.5ft 16s 6s 9 11 mph 1022.2mb 55f 56f
7:50pm 5.5ft 6s 6s 9
mph
1021.6mb 55f 56f
6:50pm 6ft 16s 6s 4 7 mph 1021mb 55f 56f
5:50pm 6.5ft 7s 6s 16 18 mph 1020.6mb 55f 56f
4:50pm 6ft 6s 6s 16 20 mph 1020.1mb 55f 56f
2:50pm 7ft 6s 6s 16 20 mph 1020mb 54f 55f
1:50pm 7ft 6s 6s 16 20 mph 1019.9mb 54f 55f
12:50pm 7.5ft 6s 6s 13 25 mph 1020.1mb 55f 55f
11:50am 8ft 6s 6s 20 27 mph 1019.7mb 55f 55f
10:50am 8ft 7s 6s 25 34 mph 1019.9mb 55f 55f
9:50am 9ft 7s 6s 25 27 mph 1019.7mb 55f 55f
8:50am 8.5ft 7s 6s 25 31 mph 1018.9mb 54f 54f
7:50am 9.5ft 7s 6s 25 29 mph 1018.3mb 54f 54f
6:50am 9.5ft 7s 6s 25 31 mph 1017.5mb 54f 54f
5:50am 9ft 8s 6s 25 31 mph 1016.9mb 54f 54f
4:50am 10ft 7s 6s 27 31 mph 1016.3mb 54f 54f
3:50am 9ft 6s 6s 27 34 mph 1016.6mb 54f 53f
2:50am 9ft 6s 6s 27 31 mph 1016.8mb 54f 53f
1:50am 7.5ft 6s 5s 27 34 mph 1016.9mb 54f 52f
12:50am 7ft 6s 5s 27 34 mph 1017.2mb 54f 52f
Wed 12/07 11:50pm 5ft 5s 5s 25 31 mph 1017.3mb 54f 52f
9:50pm 4.5ft 12s 5s 25 27 mph 1018.3mb 54f 51f
8:50pm 4ft 16s 5s 20 25 mph 1019.1mb 54f 52f
7:50pm 4.5ft 13s 6s 20 22 mph 1018.5mb 54f 53f
6:50pm 5ft 12s 7s 18 22 mph 1018.8mb 54f 53f
5:50pm 5ft 13s 8s 16 18 mph 1019.3mb 54f 53f
4:50pm 6.5ft 10s 8s 13 16 mph 1019.4mb 54f 53f
3:50pm 6.5ft 11s 8s 9 13 mph 1019.4mb 54f 53f
2:50pm 6.5ft 11s 8s 13 18 mph 1019.4mb 54f 52f
1:50pm 7.5ft 11s 8s 13 16 mph 1019.5mb 54f 52f
12:50pm 7ft 11s 8s 16 20 mph 1019.7mb 54f 51f
11:50am 8ft 13s 8s 16 22 mph 1020.7mb 54f 51f
10:50am 7.5ft 12s 8s 16 18 mph 1021.4mb 54f 51f
9:50am 8ft 12s 9s 13 16 mph 1022mb 54f 50f
8:50am 7ft 13s 8s 13 16 mph 1021.4mb 54f 49f
7:50am 7ft 12s 9s 11 13 mph 1020.8mb 54f 50f
6:50am 7ft 14s 9s 9 11 mph 1020.2mb 54f 51f
5:50am 7ft 13s 9s 7 9 mph 1019.9mb 54f 51f
4:50am 6.5ft 14s 8s 7 9 mph 1019.7mb 54f 51f
3:50am 6.5ft 13s 7s 9 11 mph 1019.8mb 54f 51f